createdAt,value
2023-04-16T00:00:48.496Z,99965.38
2023-04-16T00:05:09.652Z,99962.88
2023-04-16T00:09:12.824Z,99963.17
2023-04-16T00:13:16.635Z,99962.70
2023-04-16T00:17:19.892Z,99966.55
2023-04-16T00:21:23.271Z,99968.34
2023-04-16T00:25:26.491Z,99971.19
2023-04-16T00:29:31.246Z,99973.52
2023-04-16T00:33:34.992Z,99974.23
2023-04-16T00:37:38.909Z,99972.16
2023-04-16T00:41:51.102Z,99971.73
2023-04-16T00:45:57.301Z,99976.96
2023-04-16T00:50:00.720Z,99987.30
2023-04-16T00:54:04.622Z,99988.09
2023-04-16T00:58:07.921Z,99988.73
2023-04-16T01:02:11.244Z,99992.41
2023-04-16T01:06:16.961Z,99989.86
2023-04-16T01:10:20.300Z,99993.84
2023-04-16T01:14:23.492Z,99994.27
2023-04-16T01:18:27.228Z,100000.91
2023-04-16T01:22:30.801Z,100000.99
2023-04-16T01:26:35.151Z,100000.70
2023-04-16T01:30:39.036Z,99999.25
2023-04-16T01:34:42.759Z,100000.97
2023-04-16T01:38:46.624Z,100000.84
2023-04-16T01:42:51.815Z,100002.96
2023-04-16T01:46:56.490Z,100003.81
2023-04-16T01:51:00.781Z,100009.23
2023-04-16T01:55:06.254Z,100008.39
2023-04-16T01:59:10.583Z,100007.80
2023-04-16T02:03:14.217Z,100003.42
2023-04-16T02:07:17.998Z,100010.15
2023-04-16T02:11:21.713Z,100009.59
2023-04-16T02:15:25.533Z,100013.35
2023-04-16T02:19:29.512Z,100014.79
2023-04-16T02:23:34.170Z,100014.88
2023-04-16T02:27:37.803Z,100021.20
2023-04-16T02:31:42.693Z,100022.72
2023-04-16T02:35:46.265Z,100024.34
2023-04-16T02:39:50.169Z,100026.80
2023-04-16T02:43:53.758Z,100028.58
2023-04-16T02:47:57.990Z,100034.33
2023-04-16T02:52:01.276Z,100032.02
2023-04-16T02:56:05.402Z,100028.88
2023-04-16T03:00:09.776Z,100036.65
2023-04-16T03:04:13.590Z,100046.52
2023-04-16T03:08:18.182Z,100047.27
2023-04-16T03:12:22.269Z,100043.96
2023-04-16T03:16:25.939Z,100048.08
2023-04-16T03:20:29.277Z,100051.73
2023-04-16T03:24:32.581Z,100058.64
2023-04-16T03:28:36.017Z,100061.69
2023-04-16T03:32:39.555Z,100069.91
2023-04-16T03:36:42.978Z,100072.86
2023-04-16T03:40:46.567Z,100082.65
2023-04-16T03:44:50.671Z,100086.63
2023-04-16T03:48:54.828Z,100089.24
2023-04-16T03:52:58.816Z,100095.38
2023-04-16T03:57:02.821Z,100107.11
2023-04-16T04:01:06.579Z,100109.59
2023-04-16T04:05:10.647Z,100116.66
2023-04-16T04:09:16.712Z,100121.54
2023-04-16T04:13:20.063Z,100129.59
2023-04-16T04:17:23.480Z,100127.54
2023-04-16T04:21:30.194Z,100126.66
2023-04-16T04:25:33.744Z,100126.30
2023-04-16T04:29:37.071Z,100130.84
2023-04-16T04:33:40.588Z,100138.48
2023-04-16T04:37:45.215Z,100147.10
2023-04-16T04:41:49.134Z,100152.30
2023-04-16T04:45:52.460Z,100147.35
2023-04-16T04:49:55.749Z,100143.99
2023-04-16T04:53:59.303Z,100147.80
2023-04-16T04:58:04.064Z,100156.23
2023-04-16T05:02:07.910Z,100158.48
2023-04-16T05:06:11.471Z,100166.56
2023-04-16T05:10:14.842Z,100168.33
2023-04-16T05:14:18.113Z,100178.85
2023-04-16T05:18:21.384Z,100188.55
2023-04-16T05:22:24.659Z,100196.03
2023-04-16T05:26:27.858Z,100207.79
2023-04-16T05:30:31.256Z,100210.02
2023-04-16T05:34:34.811Z,100212.30
2023-04-16T05:38:38.312Z,100211.89
2023-04-16T05:42:42.032Z,100214.90
2023-04-16T05:46:45.989Z,100216.65
2023-04-16T05:50:49.885Z,100217.16
2023-04-16T05:54:54.386Z,100224.48
2023-04-16T05:58:57.731Z,100223.91
2023-04-16T06:03:01.364Z,100228.17
2023-04-16T06:07:04.948Z,100226.59
2023-04-16T06:11:08.520Z,100229.78
2023-04-16T06:15:11.863Z,100233.86
2023-04-16T06:19:15.496Z,100240.31
2023-04-16T06:23:18.868Z,100240.70
2023-04-16T06:27:23.563Z,100246.96
2023-04-16T06:31:28.415Z,100251.48
2023-04-16T06:35:31.974Z,100254.67
2023-04-16T06:39:35.644Z,100257.64
2023-04-16T06:43:39.819Z,100260.20
2023-04-16T06:47:44.017Z,100259.43
2023-04-16T07:08:29.169Z,100256.36
2023-04-16T07:12:32.880Z,100258.00
2023-04-16T07:16:37.260Z,100266.79
2023-04-16T07:20:39.180Z,100270.39
2023-04-16T07:24:40.953Z,100275.77
2023-04-16T07:28:46.157Z,100278.29
2023-04-16T07:32:47.983Z,100279.72
2023-04-16T07:36:50.037Z,100284.73
2023-04-16T07:40:54.982Z,100287.63
2023-04-16T07:44:56.538Z,100284.77
2023-04-16T07:49:02.198Z,100287.30
2023-04-16T07:53:06.154Z,100297.30
2023-04-16T07:57:07.887Z,100304.83
2023-04-16T08:01:35.153Z,100304.04
2023-04-16T08:05:36.918Z,100310.17
2023-04-16T08:09:50.050Z,100314.76
2023-04-16T08:13:51.823Z,100316.09
2023-04-16T08:17:53.688Z,100320.09
2023-04-16T08:22:18.091Z,100330.64
2023-04-16T08:26:20.066Z,100333.52
2023-04-16T08:30:21.634Z,100337.36
2023-04-16T08:34:23.445Z,100341.06
2023-04-16T08:38:27.211Z,100343.55
2023-04-16T08:42:32.371Z,100343.31
2023-04-16T08:46:38.122Z,100346.36
2023-04-16T08:50:41.034Z,100347.02
2023-04-16T08:55:00.197Z,100349.75
2023-04-16T08:59:05.238Z,100355.42
2023-04-16T09:03:09.485Z,100359.23
2023-04-16T09:07:11.846Z,100360.84
2023-04-16T09:11:13.970Z,100362.85
2023-04-16T09:16:12.242Z,100362.98
2023-04-16T09:20:15.638Z,100366.11
2023-04-16T09:24:22.094Z,100366.61
2023-04-16T09:33:26.104Z,100368.61
2023-04-16T09:37:56.719Z,100372.98
2023-04-16T09:41:58.890Z,100368.63
2023-04-16T09:46:08.092Z,100365.40
2023-04-16T09:50:18.196Z,100367.86
2023-04-16T09:54:53.075Z,100370.31
2023-04-16T09:59:01.908Z,100368.33
2023-04-16T10:03:06.748Z,100368.58
2023-04-16T10:07:09.028Z,100366.83
2023-04-16T10:11:11.720Z,100367.04
2023-04-16T10:15:13.509Z,100365.75
2023-04-16T10:19:17.310Z,100374.86
2023-04-16T10:23:23.390Z,100374.39
2023-04-16T10:27:26.322Z,100375.66
2023-04-16T10:31:40.735Z,100370.55
2023-04-16T10:35:46.841Z,100367.63
2023-04-16T10:39:58.427Z,100364.50
2023-04-16T10:44:10.731Z,100360.13
2023-04-16T10:48:14.843Z,100363.83
2023-04-16T10:52:16.821Z,100360.28
2023-04-16T10:56:27.278Z,100365.28
2023-04-16T11:00:29.077Z,100363.14
2023-04-16T11:04:36.877Z,100358.53
2023-04-16T11:08:53.280Z,100353.05
2023-04-16T11:12:58.358Z,100360.17
2023-04-16T11:17:03.587Z,100358.31
2023-04-16T11:21:14.869Z,100357.66
2023-04-16T11:25:30.940Z,100356.39
2023-04-16T11:29:32.691Z,100356.95
2023-04-16T11:33:34.198Z,100362.23
2023-04-16T11:37:38.129Z,100363.09
2023-04-16T11:41:50.439Z,100361.82
2023-04-16T11:46:24.114Z,100363.12
2023-04-16T11:54:50.984Z,100365.59
2023-04-16T12:21:50.965Z,100359.85
